createdAt,value
2019-05-14T00:01:27.255Z,100279.41
2019-05-14T00:06:32.609Z,100283.30
2019-05-14T00:11:37.942Z,100287.94
2019-05-14T00:16:43.177Z,100284.34
2019-05-14T00:21:48.671Z,100276.05
2019-05-14T00:26:54.253Z,100268.09
2019-05-14T00:32:01.920Z,100261.81
2019-05-14T00:37:07.038Z,100253.80
2019-05-14T00:42:13.210Z,100260.05
2019-05-14T00:47:18.538Z,100252.83
2019-05-14T00:52:23.791Z,100253.28
2019-05-14T00:57:29.003Z,100257.59
2019-05-14T01:02:34.254Z,100255.75
2019-05-14T01:07:42.068Z,100257.80
2019-05-14T01:12:46.896Z,100252.48
2019-05-14T01:17:52.161Z,100257.80
2019-05-14T01:22:57.372Z,100252.90
2019-05-14T01:28:02.647Z,100251.81
2019-05-14T01:33:07.895Z,100258.22
2019-05-14T01:38:13.406Z,100242.95
2019-05-14T01:43:18.651Z,100245.55
2019-05-14T01:48:23.952Z,100248.97
2019-05-14T01:53:31.203Z,100245.34
2019-05-14T01:58:36.781Z,100250.09
2019-05-14T02:03:42.013Z,100248.55
2019-05-14T02:08:47.234Z,100251.38
2019-05-14T02:13:52.469Z,100250.20
2019-05-14T02:18:57.751Z,100251.70
2019-05-14T02:24:05.453Z,100249.06
2019-05-14T02:29:12.471Z,100248.26
2019-05-14T02:34:19.777Z,100233.72
2019-05-14T02:39:24.901Z,100240.19
2019-05-14T02:44:30.304Z,100232.30
2019-05-14T02:49:35.506Z,100229.11
2019-05-14T02:54:41.096Z,100233.51
2019-05-14T02:59:49.838Z,100227.37
2019-05-14T03:04:53.318Z,100217.03
2019-05-14T03:09:59.573Z,100209.94
2019-05-14T03:15:09.297Z,100212.33
2019-05-14T03:20:13.992Z,100210.75
2019-05-14T03:25:19.610Z,100205.28
2019-05-14T03:30:24.983Z,100197.77
2019-05-14T03:35:41.297Z,100197.47
2019-05-14T03:40:39.712Z,100201.33
2019-05-14T03:45:44.396Z,100205.80
2019-05-14T03:50:50.139Z,100191.27
2019-05-14T03:55:59.397Z,100201.41
2019-05-14T04:01:03.462Z,100190.77
2019-05-14T04:06:11.025Z,100194.34
2019-05-14T04:11:20.105Z,100190.02
2019-05-14T04:16:29.225Z,100186.19
2019-05-14T04:21:34.158Z,100192.20
2019-05-14T04:26:57.028Z,100183.41
2019-05-14T04:31:50.321Z,100189.30
2019-05-14T04:36:59.106Z,100178.60
2019-05-14T04:42:03.506Z,100181.42
2019-05-14T04:47:22.559Z,100181.77
2019-05-14T04:52:16.186Z,100183.64
2019-05-14T04:57:25.306Z,100191.38
2019-05-14T05:02:30.101Z,100175.02
2019-05-14T05:07:35.442Z,100169.21
2019-05-14T05:12:40.803Z,100173.85
2019-05-14T05:17:51.886Z,100180.86
2019-05-14T05:22:53.025Z,100182.22
2019-05-14T05:27:59.808Z,100172.22
2019-05-14T05:33:05.362Z,100180.41
2019-05-14T05:38:10.760Z,100174.27
2019-05-14T05:43:16.175Z,100178.36
2019-05-14T05:48:21.409Z,100177.11
2019-05-14T05:53:28.754Z,100178.83
2019-05-14T05:58:33.930Z,100179.05
2019-05-14T06:03:39.550Z,100167.69
2019-05-14T06:08:45.143Z,100164.73
2019-05-14T06:13:50.634Z,100161.43
2019-05-14T06:18:58.599Z,100158.02
2019-05-14T06:24:03.193Z,100151.77
2019-05-14T06:29:08.668Z,100154.58
2019-05-14T06:34:14.025Z,100153.19
2019-05-14T06:39:19.335Z,100157.55
2019-05-14T06:44:24.610Z,100160.50
2019-05-14T06:49:30.247Z,100164.70
2019-05-14T06:54:38.461Z,100153.56
2019-05-14T06:59:42.927Z,100158.21
2019-05-14T07:04:48.605Z,100149.16
2019-05-14T07:09:53.859Z,100153.02
2019-05-14T07:14:59.116Z,100151.58
2019-05-14T07:20:05.197Z,100148.95
2019-05-14T07:25:11.713Z,100140.16
2019-05-14T07:30:19.373Z,100139.31
2019-05-14T07:35:24.630Z,100138.95
2019-05-14T07:40:29.939Z,100134.11
2019-05-14T07:45:35.290Z,100122.66
2019-05-14T07:50:40.758Z,100112.02
2019-05-14T07:55:46.103Z,100107.64
2019-05-14T08:00:51.622Z,100105.87
2019-05-14T08:05:58.924Z,100104.65
2019-05-14T08:11:04.721Z,100100.05
2019-05-14T08:16:10.265Z,100102.89
2019-05-14T08:21:15.503Z,100092.98
2019-05-14T08:26:20.864Z,100091.95
2019-05-14T08:31:26.171Z,100086.89
2019-05-14T08:36:31.431Z,100085.65
2019-05-14T08:41:38.410Z,100083.48
2019-05-14T08:46:45.272Z,100075.41
2019-05-14T08:51:50.607Z,100074.58
2019-05-14T08:56:58.199Z,100074.35
2019-05-14T09:02:06.698Z,100073.85
2019-05-14T09:07:09.903Z,100074.35
2019-05-14T09:12:16.126Z,100072.20
2019-05-14T09:17:21.451Z,100069.36
2019-05-14T09:22:28.933Z,100063.87
2019-05-14T09:27:33.958Z,100062.02
2019-05-14T09:32:39.267Z,100060.53
2019-05-14T09:37:44.513Z,100064.13
2019-05-14T09:42:50.215Z,100059.70
2019-05-14T09:49:18.696Z,100053.27
2019-05-14T09:54:23.761Z,100056.31
2019-05-14T09:59:29.064Z,100045.82
2019-05-14T10:04:34.323Z,100030.02
2019-05-14T10:09:39.547Z,100035.06
2019-05-14T10:14:44.844Z,100019.14
2019-05-14T10:19:50.153Z,100017.34
2019-05-14T10:24:55.447Z,100007.25
2019-05-14T10:30:00.704Z,100001.64
2019-05-14T10:35:08.538Z,100011.95
2019-05-14T10:40:14.033Z,100002.71
2019-05-14T10:45:19.931Z,100007.13
2019-05-14T10:50:25.378Z,100004.00
2019-05-14T10:55:30.646Z,100003.34
2019-05-14T11:00:36.033Z,100003.43
2019-05-14T11:05:41.724Z,99998.11
2019-05-14T11:10:49.752Z,99980.91
2019-05-14T11:15:54.914Z,99989.55
2019-05-14T11:21:18.663Z,99982.09
2019-05-14T11:26:09.250Z,99962.57
2019-05-14T11:31:18.746Z,99961.43
2019-05-14T11:36:22.750Z,99956.88
2019-05-14T11:41:28.666Z,99969.45
2019-05-14T11:46:43.686Z,99948.36
2019-05-14T11:51:59.460Z,99933.59
2019-05-14T11:56:48.371Z,99933.91
2019-05-14T12:01:55.030Z,99923.36
2019-05-14T12:07:00.451Z,99908.53
2019-05-14T12:12:05.668Z,99909.77
2019-05-14T12:17:11.221Z,99896.66
2019-05-14T12:22:18.746Z,99887.02
2019-05-14T12:27:23.675Z,99886.55
2019-05-14T12:32:29.642Z,99867.34
2019-05-14T12:37:38.487Z,99873.98
2019-05-14T12:42:42.808Z,99868.88
2019-05-14T12:47:50.131Z,99858.31
2019-05-14T12:52:56.015Z,99849.05
2019-05-14T12:58:01.586Z,99828.17
2019-05-14T13:03:09.074Z,99827.63
2019-05-14T13:08:15.422Z,99836.88
2019-05-14T13:13:21.128Z,99820.06
2019-05-14T13:18:28.892Z,99820.63
2019-05-14T13:23:34.957Z,99803.14
2019-05-14T13:28:42.610Z,99807.25
2019-05-14T13:33:48.827Z,99797.22
2019-05-14T13:38:54.393Z,99798.15
2019-05-14T13:44:15.907Z,99785.29
2019-05-14T13:49:06.853Z,99792.84
2019-05-14T13:54:12.470Z,99790.06
2019-05-14T13:59:18.782Z,99790.64
2019-05-14T14:04:24.910Z,99777.56
2019-05-14T14:09:31.425Z,99773.28
2019-05-14T14:14:38.636Z,99766.72
2019-05-14T14:19:44.185Z,99763.70
2019-05-14T14:24:52.515Z,99762.38
2019-05-14T14:29:59.424Z,99764.25
2019-05-14T14:35:05.391Z,99758.08
2019-05-14T14:40:11.362Z,99749.56
2019-05-14T14:45:16.860Z,99739.21
2019-05-14T14:50:22.148Z,99734.59
2019-05-14T14:55:30.541Z,99729.94
2019-05-14T15:00:37.995Z,99711.31
2019-05-14T15:05:44.511Z,99700.95
2019-05-14T15:10:49.893Z,99703.03
2019-05-14T15:15:55.486Z,99713.02
2019-05-14T15:21:01.066Z,99713.59
2019-05-14T15:26:11.547Z,99700.64
2019-05-14T15:31:13.769Z,99684.18
2019-05-14T15:36:19.811Z,99688.02
2019-05-14T15:41:25.221Z,99695.88
2019-05-14T15:46:30.582Z,99686.17
2019-05-14T15:51:36.047Z,99669.17
2019-05-14T15:56:41.399Z,99670.22
2019-05-14T16:01:46.741Z,99673.02
2019-05-14T16:06:52.033Z,99673.48
2019-05-14T16:11:58.904Z,99672.05
2019-05-14T16:17:04.274Z,99671.80
2019-05-14T16:22:09.958Z,99666.36
2019-05-14T16:27:16.244Z,99677.91
2019-05-14T16:32:21.533Z,99669.30
2019-05-14T16:37:28.181Z,99671.30
2019-05-14T16:42:33.546Z,99671.44
2019-05-14T16:47:39.984Z,99666.44
2019-05-14T16:52:45.809Z,99666.47
2019-05-14T16:57:51.583Z,99674.25
2019-05-14T17:02:59.132Z,99669.20
2019-05-14T17:08:04.427Z,99670.20
2019-05-14T17:13:09.785Z,99664.97
2019-05-14T17:18:16.216Z,99675.58
2019-05-14T17:23:22.447Z,99670.09
2019-05-14T17:28:28.636Z,99666.14
2019-05-14T17:33:34.340Z,99671.91
2019-05-14T17:38:39.581Z,99670.12
2019-05-14T17:43:45.098Z,99666.34
2019-05-14T17:48:50.189Z,99667.30
2019-05-14T17:53:55.572Z,99668.84
2019-05-14T17:59:00.858Z,99678.03
2019-05-14T18:04:08.910Z,99679.50
2019-05-14T18:09:13.479Z,99677.14
2019-05-14T18:14:19.173Z,99672.13
2019-05-14T18:19:25.026Z,99678.16
2019-05-14T18:24:30.372Z,99676.61
2019-05-14T18:29:38.779Z,99677.24
2019-05-14T18:34:43.181Z,99678.27
2019-05-14T18:39:48.534Z,99673.24
2019-05-14T18:44:58.946Z,99673.84
2019-05-14T18:50:03.730Z,99680.44
2019-05-14T18:55:09.316Z,99674.33
2019-05-14T19:00:15.432Z,99680.30
2019-05-14T19:05:21.214Z,99686.70
2019-05-14T19:10:28.051Z,99687.69
2019-05-14T19:15:33.869Z,99692.02
2019-05-14T19:20:39.387Z,99696.27
2019-05-14T19:25:44.979Z,99692.90
2019-05-14T19:30:50.368Z,99697.31
2019-05-14T19:35:55.731Z,99697.69
2019-05-14T19:41:01.093Z,99690.26
2019-05-14T19:46:08.781Z,99706.02
2019-05-14T19:51:14.106Z,99703.97
2019-05-14T19:56:20.433Z,99707.70
2019-05-14T20:01:28.713Z,99698.06
2019-05-14T20:06:33.866Z,99708.39
2019-05-14T20:11:39.930Z,99710.63
2019-05-14T20:16:45.525Z,99703.64
2019-05-14T20:21:52.188Z,99703.41
2019-05-14T20:27:05.746Z,99706.20
2019-05-14T20:32:04.528Z,99702.67
2019-05-14T20:37:10.309Z,99693.80
2019-05-14T20:42:18.332Z,99694.44
2019-05-14T20:47:23.487Z,99688.00
2019-05-14T20:52:29.461Z,99687.82
2019-05-14T20:57:34.703Z,99695.69
2019-05-14T21:02:40.350Z,99691.50
2019-05-14T21:07:45.676Z,99689.90
2019-05-14T21:12:51.287Z,99685.70
2019-05-14T21:17:59.650Z,99683.08
2019-05-14T21:23:04.054Z,99678.78
2019-05-14T21:28:09.477Z,99679.06
2019-05-14T21:33:15.016Z,99673.67
2019-05-14T21:38:20.626Z,99677.67
2019-05-14T21:43:25.937Z,99673.07
2019-05-14T21:48:31.469Z,99669.38
2019-05-14T21:53:40.818Z,99673.82
2019-05-14T21:58:44.647Z,99671.17
2019-05-14T22:03:49.979Z,99670.20
2019-05-14T22:08:55.530Z,99666.63
2019-05-14T22:14:00.821Z,99670.28
2019-05-14T22:19:08.315Z,99661.73
2019-05-14T22:24:13.065Z,99664.60
2019-05-14T22:29:18.290Z,99662.86
2019-05-14T22:34:23.572Z,99665.36
2019-05-14T22:39:29.239Z,99656.72
2019-05-14T22:44:34.591Z,99654.49
2019-05-14T22:49:40.260Z,99647.96
2019-05-14T22:54:46.167Z,99643.52
2019-05-14T22:59:51.412Z,99640.80
2019-05-14T23:04:58.537Z,99643.80
2019-05-14T23:10:04.284Z,99646.34
2019-05-14T23:15:09.514Z,99649.42
2019-05-14T23:20:14.859Z,99655.04
2019-05-14T23:25:21.300Z,99652.06
2019-05-14T23:30:33.539Z,99654.51
2019-05-14T23:35:39.883Z,99654.22
2019-05-14T23:40:45.204Z,99659.85
2019-05-14T23:45:50.424Z,99655.09
2019-05-14T23:50:58.340Z,99644.95
2019-05-14T23:56:03.183Z,99639.20
